sensor_id;sensor_type;location;lat;lon;timestamp;pressure;altitude;pressure_sealevel;temperature;humidity
79123;BME280;68526;44.600;26.032;2024-01-30T00:00:00;103087.13;;;-0.51;74.76
79123;BME280;68526;44.600;26.032;2024-01-30T00:00:17;103084.44;;;-0.51;74.91
79123;BME280;68526;44.600;26.032;2024-01-30T00:00:33;103079.72;;;-0.49;74.93
79123;BME280;68526;44.600;26.032;2024-01-30T00:00:49;103081.75;;;-0.51;75.00
79123;BME280;68526;44.600;26.032;2024-01-30T00:01:05;103076.38;;;-0.51;74.82
79123;BME280;68526;44.600;26.032;2024-01-30T00:01:21;103080.91;;;-0.51;74.80
79123;BME280;68526;44.600;26.032;2024-01-30T00:01:38;103084.63;;;-0.52;74.86
79123;BME280;68526;44.600;26.032;2024-01-30T00:01:54;103079.91;;;-0.50;74.93
79123;BME280;68526;44.600;26.032;2024-01-30T00:02:10;103079.06;;;-0.51;74.64
79123;BME280;68526;44.600;26.032;2024-01-30T00:02:26;103078.22;;;-0.51;74.69
79123;BME280;68526;44.600;26.032;2024-01-30T00:02:42;103077.53;;;-0.54;74.81
79123;BME280;68526;44.600;26.032;2024-01-30T00:02:58;103080.91;;;-0.51;74.77
79123;BME280;68526;44.600;26.032;2024-01-30T00:03:15;103083.78;;;-0.53;74.67
79123;BME280;68526;44.600;26.032;2024-01-30T00:03:31;103084.44;;;-0.51;74.63
79123;BME280;68526;44.600;26.032;2024-01-30T00:03:47;103084.44;;;-0.51;74.38
79123;BME280;68526;44.600;26.032;2024-01-30T00:04:03;103084.44;;;-0.51;74.42
79123;BME280;68526;44.600;26.032;2024-01-30T00:04:19;103079.06;;;-0.51;74.42
79123;BME280;68526;44.600;26.032;2024-01-30T00:04:35;103081.94;;;-0.52;74.42
79123;BME280;68526;44.600;26.032;2024-01-30T00:04:51;103081.94;;;-0.52;74.73
79123;BME280;68526;44.600;26.032;2024-01-30T00:05:08;103084.63;;;-0.52;74.38
79123;BME280;68526;44.600;26.032;2024-01-30T00:05:24;103080.91;;;-0.51;74.72
79123;BME280;68526;44.600;26.032;2024-01-30T00:05:40;103080.25;;;-0.54;74.41
79123;BME280;68526;44.600;26.032;2024-01-30T00:05:56;103077.53;;;-0.54;74.57
79123;BME280;68526;44.600;26.032;2024-01-30T00:06:12;103078.41;;;-0.53;74.41
79123;BME280;68526;44.600;26.032;2024-01-30T00:06:27;103081.44;;;-0.56;74.59
79123;BME280;68526;44.600;26.032;2024-01-30T00:06:44;103087.66;;;-0.56;74.21
79123;BME280;68526;44.600;26.032;2024-01-30T00:07:01;103078.75;;;-0.56;74.47
79123;BME280;68526;44.600;26.032;2024-01-30T00:07:16;103079.78;;;-0.57;74.68
79123;BME280;68526;44.600;26.032;2024-01-30T00:07:33;103084.97;;;-0.56;74.60
79123;BME280;68526;44.600;26.032;2024-01-30T00:07:48;103080.63;;;-0.57;74.61
79123;BME280;68526;44.600;26.032;2024-01-30T00:08:05;103074.38;;;-0.57;74.26
79123;BME280;68526;44.600;26.032;2024-01-30T00:08:21;103080.81;;;-0.58;74.20
79123;BME280;68526;44.600;26.032;2024-01-30T00:08:37;103086.00;;;-0.57;74.62
79123;BME280;68526;44.600;26.032;2024-01-30T00:08:54;103087.84;;;-0.57;74.39
79123;BME280;68526;44.600;26.032;2024-01-30T00:09:10;103079.78;;;-0.57;74.09
79123;BME280;68526;44.600;26.032;2024-01-30T00:09:26;103075.75;;;-0.61;74.17
79123;BME280;68526;44.600;26.032;2024-01-30T00:09:42;103085.16;;;-0.57;74.30
79123;BME280;68526;44.600;26.032;2024-01-30T00:09:58;103078.75;;;-0.56;74.20
79123;BME280;68526;44.600;26.032;2024-01-30T00:10:14;103076.06;;;-0.56;74.07
79123;BME280;68526;44.600;26.032;2024-01-30T00:10:30;103076.06;;;-0.56;74.31
79123;BME280;68526;44.600;26.032;2024-01-30T00:10:47;103082.66;;;-0.59;74.20
79123;BME280;68526;44.600;26.032;2024-01-30T00:11:04;103083.50;;;-0.58;74.31
79123;BME280;68526;44.600;26.032;2024-01-30T00:11:20;103082.66;;;-0.59;74.11
79123;BME280;68526;44.600;26.032;2024-01-30T00:11:36;103078.94;;;-0.58;74.08
79123;BME280;68526;44.600;26.032;2024-01-30T00:11:52;103081.63;;;-0.58;73.86
79123;BME280;68526;44.600;26.032;2024-01-30T00:12:08;103081.81;;;-0.59;74.28
79123;BME280;68526;44.600;26.032;2024-01-30T00:12:24;103076.25;;;-0.58;73.91
79123;BME280;68526;44.600;26.032;2024-01-30T00:12:40;103078.94;;;-0.58;73.76
79123;BME280;68526;44.600;26.032;2024-01-30T00:12:56;103086.00;;;-0.57;73.59
79123;BME280;68526;44.600;26.032;2024-01-30T00:13:13;103074.59;;;-0.59;73.82
79123;BME280;68526;44.600;26.032;2024-01-30T00:13:29;103080.63;;;-0.57;74.05
79123;BME280;68526;44.600;26.032;2024-01-30T00:13:45;103081.44;;;-0.56;73.51
79123;BME280;68526;44.600;26.032;2024-01-30T00:14:01;103082.28;;;-0.56;73.67
79123;BME280;68526;44.600;26.032;2024-01-30T00:14:17;103078.75;;;-0.56;73.64
79123;BME280;68526;44.600;26.032;2024-01-30T00:14:33;103084.97;;;-0.56;73.77
79123;BME280;68526;44.600;26.032;2024-01-30T00:14:48;103086.00;;;-0.57;73.50
79123;BME280;68526;44.600;26.032;2024-01-30T00:15:05;103084.13;;;-0.56;73.56
79123;BME280;68526;44.600;26.032;2024-01-30T00:15:24;103078.75;;;-0.56;73.92
79123;BME280;68526;44.600;26.032;2024-01-30T00:15:40;103079.78;;;-0.57;73.65
79123;BME280;68526;44.600;26.032;2024-01-30T00:15:56;103081.97;;;-0.61;73.46
79123;BME280;68526;44.600;26.032;2024-01-30T00:16:20;103088.03;;;-0.59;73.66
79123;BME280;68526;44.600;26.032;2024-01-30T00:16:37;103080.97;;;-0.60;73.55
79123;BME280;68526;44.600;26.032;2024-01-30T00:16:53;103084.66;;;-0.61;73.55
79123;BME280;68526;44.600;26.032;2024-01-30T00:17:09;103081.81;;;-0.59;73.68
79123;BME280;68526;44.600;26.032;2024-01-30T00:17:25;103082.81;;;-0.60;73.44
79123;BME280;68526;44.600;26.032;2024-01-30T00:17:41;103083.84;;;-0.61;73.59
79123;BME280;68526;44.600;26.032;2024-01-30T00:17:57;103079.28;;;-0.61;73.38
79123;BME280;68526;44.600;26.032;2024-01-30T00:18:13;103092.41;;;-0.58;73.18
79123;BME280;68526;44.600;26.032;2024-01-30T00:18:29;103079.13;;;-0.59;73.14
79123;BME280;68526;44.600;26.032;2024-01-30T00:18:45;103082.81;;;-0.60;73.06
79123;BME280;68526;44.600;26.032;2024-01-30T00:19:01;103084.66;;;-0.61;73.57
79123;BME280;68526;44.600;26.032;2024-01-30T00:19:19;103085.88;;;-0.63;73.39
79123;BME280;68526;44.600;26.032;2024-01-30T00:19:34;103081.34;;;-0.63;73.29
79123;BME280;68526;44.600;26.032;2024-01-30T00:19:50;103082.16;;;-0.62;73.22
79123;BME280;68526;44.600;26.032;2024-01-30T00:20:07;103081.34;;;-0.63;73.38
79123;BME280;68526;44.600;26.032;2024-01-30T00:20:24;103085.50;;;-0.60;73.62
79123;BME280;68526;44.600;26.032;2024-01-30T00:20:40;103083.00;;;-0.62;73.61
79123;BME280;68526;44.600;26.032;2024-01-30T00:20:56;103085.03;;;-0.64;73.47
79123;BME280;68526;44.600;26.032;2024-01-30T00:21:12;103080.69;;;-0.65;73.61
79123;BME280;68526;44.600;26.032;2024-01-30T00:21:29;103080.69;;;-0.65;73.69
79123;BME280;68526;44.600;26.032;2024-01-30T00:21:45;103084.56;;;-0.67;73.76
79123;BME280;68526;44.600;26.032;2024-01-30T00:22:01;103086.91;;;-0.64;73.69
79123;BME280;68526;44.600;26.032;2024-01-30T00:22:17;103089.41;;;-0.63;73.57
79123;BME280;68526;44.600;26.032;2024-01-30T00:22:33;103084.22;;;-0.64;73.59
79123;BME280;68526;44.600;26.032;2024-01-30T00:22:49;103086.06;;;-0.65;73.73
79123;BME280;68526;44.600;26.032;2024-01-30T00:23:04;103086.59;;;-0.69;73.71
79123;BME280;68526;44.600;26.032;2024-01-30T00:23:21;103085.75;;;-0.70;73.46
79123;BME280;68526;44.600;26.032;2024-01-30T00:23:37;103086.59;;;-0.69;73.64
79123;BME280;68526;44.600;26.032;2024-01-30T00:23:53;103088.25;;;-0.68;73.73
79123;BME280;68526;44.600;26.032;2024-01-30T00:24:09;103090.97;;;-0.68;73.54
79123;BME280;68526;44.600;26.032;2024-01-30T00:24:25;103091.78;;;-0.68;73.63
79123;BME280;68526;44.600;26.032;2024-01-30T00:24:41;103090.78;;;-0.67;73.28
79123;BME280;68526;44.600;26.032;2024-01-30T00:24:57;103082.69;;;-0.67;73.33
79123;BME280;68526;44.600;26.032;2024-01-30T00:25:13;103086.22;;;-0.66;73.27
79123;BME280;68526;44.600;26.032;2024-01-30T00:25:30;103085.91;;;-0.71;73.29
79123;BME280;68526;44.600;26.032;2024-01-30T00:25:47;103085.91;;;-0.71;73.24
79123;BME280;68526;44.600;26.032;2024-01-30T00:26:03;103085.91;;;-0.71;73.54
79123;BME280;68526;44.600;26.032;2024-01-30T00:26:20;103083.91;;;-0.69;73.51
79123;BME280;68526;44.600;26.032;2024-01-30T00:26:36;103086.41;;;-0.68;73.42
79123;BME280;68526;44.600;26.032;2024-01-30T00:26:52;103083.72;;;-0.68;73.45
79123;BME280;68526;44.600;26.032;2024-01-30T00:27:08;103081.84;;;-0.67;73.19
79123;BME280;68526;44.600;26.032;2024-01-30T00:27:25;103090.78;;;-0.67;73.24
79123;BME280;68526;44.600;26.032;2024-01-30T00:27:42;103074.31;;;-0.72;73.53
79123;BME280;68526;44.600;26.032;2024-01-30T00:27:57;103092.63;;;-0.67;73.23
79123;BME280;68526;44.600;26.032;2024-01-30T00:28:13;103088.25;;;-0.68;73.46
79123;BME280;68526;44.600;26.032;2024-01-30T00:28:29;103089.94;;;-0.67;73.56
79123;BME280;68526;44.600;26.032;2024-01-30T00:28:45;103081.84;;;-0.67;73.07
79123;BME280;68526;44.600;26.032;2024-01-30T00:29:01;103088.91;;;-0.66;73.31
79123;BME280;68526;44.600;26.032;2024-01-30T00:29:17;103086.22;;;-0.66;73.31
79123;BME280;68526;44.600;26.032;2024-01-30T00:29:35;103085.22;;;-0.65;73.14
79123;BME280;68526;44.600;26.032;2024-01-30T00:29:51;103087.25;;;-0.67;73.15
79123;BME280;68526;44.600;26.032;2024-01-30T00:30:08;103092.28;;;-0.64;72.97
79123;BME280;68526;44.600;26.032;2024-01-30T00:30:24;103087.06;;;-0.66;73.03
79123;BME280;68526;44.600;26.032;2024-01-30T00:30:40;103084.38;;;-0.66;73.00
79123;BME280;68526;44.600;26.032;2024-01-30T00:30:56;103084.38;;;-0.66;73.06
79123;BME280;68526;44.600;26.032;2024-01-30T00:31:12;103081.66;;;-0.66;73.22
79123;BME280;68526;44.600;26.032;2024-01-30T00:31:27;103086.41;;;-0.68;73.09
79123;BME280;68526;44.600;26.032;2024-01-30T00:31:44;103087.06;;;-0.66;73.03
79123;BME280;68526;44.600;26.032;2024-01-30T00:32:00;103084.38;;;-0.66;73.16
79123;BME280;68526;44.600;26.032;2024-01-30T00:32:16;103083.38;;;-0.65;73.06
79123;BME280;68526;44.600;26.032;2024-01-30T00:32:34;103085.22;;;-0.65;72.91
79123;BME280;68526;44.600;26.032;2024-01-30T00:32:50;103090.97;;;-0.68;73.53
79123;BME280;68526;44.600;26.032;2024-01-30T00:33:06;103082.69;;;-0.67;73.14
79123;BME280;68526;44.600;26.032;2024-01-30T00:33:23;103083.91;;;-0.69;73.16
79123;BME280;68526;44.600;26.032;2024-01-30T00:33:40;103082.88;;;-0.68;73.22
79123;BME280;68526;44.600;26.032;2024-01-30T00:33:56;103082.22;;;-0.70;73.28
79123;BME280;68526;44.600;26.032;2024-01-30T00:34:12;103092.81;;;-0.69;73.29
79123;BME280;68526;44.600;26.032;2024-01-30T00:34:28;103083.91;;;-0.69;73.31
79123;BME280;68526;44.600;26.032;2024-01-30T00:34:44;103084.94;;;-0.70;73.37
79123;BME280;68526;44.600;26.032;2024-01-30T00:35:00;103079.34;;;-0.69;73.14
79123;BME280;68526;44.600;26.032;2024-01-30T00:35:16;103081.84;;;-0.67;73.21
79123;BME280;68526;44.600;26.032;2024-01-30T00:35:32;103077.50;;;-0.68;73.60
79123;BME280;68526;44.600;26.032;2024-01-30T00:35:49;103078.53;;;-0.69;73.31
79123;BME280;68526;44.600;26.032;2024-01-30T00:36:05;103078.53;;;-0.69;73.13
79123;BME280;68526;44.600;26.032;2024-01-30T00:36:21;103082.03;;;-0.69;73.27
79123;BME280;68526;44.600;26.032;2024-01-30T00:36:37;103078.53;;;-0.69;73.33
79123;BME280;68526;44.600;26.032;2024-01-30T00:36:53;103076.66;;;-0.69;73.17
79123;BME280;68526;44.600;26.032;2024-01-30T00:37:09;103076.47;;;-0.67;73.71
79123;BME280;68526;44.600;26.032;2024-01-30T00:37:26;103083.72;;;-0.68;73.21
79123;BME280;68526;44.600;26.032;2024-01-30T00:37:42;103080.00;;;-0.67;73.22
79123;BME280;68526;44.600;26.032;2024-01-30T00:37:58;103083.53;;;-0.66;73.10
79123;BME280;68526;44.600;26.032;2024-01-30T00:38:13;103078.16;;;-0.66;73.43
79123;BME280;68526;44.600;26.032;2024-01-30T00:38:29;103078.97;;;-0.66;73.46
79123;BME280;68526;44.600;26.032;2024-01-30T00:38:46;103075.44;;;-0.66;73.18
79123;BME280;68526;44.600;26.032;2024-01-30T00:39:03;103082.88;;;-0.68;73.58
79123;BME280;68526;44.600;26.032;2024-01-30T00:39:21;103088.25;;;-0.68;73.11
79123;BME280;68526;44.600;26.032;2024-01-30T00:39:37;103089.09;;;-0.68;73.51
79123;BME280;68526;44.600;26.032;2024-01-30T00:39:53;103082.88;;;-0.68;73.19
79123;BME280;68526;44.600;26.032;2024-01-30T00:40:10;103078.53;;;-0.69;73.29
79123;BME280;68526;44.600;26.032;2024-01-30T00:40:30;103089.09;;;-0.68;73.64
79123;BME280;68526;44.600;26.032;2024-01-30T00:40:48;103080.00;;;-0.67;73.62
79123;BME280;68526;44.600;26.032;2024-01-30T00:41:04;103076.00;;;-0.71;73.28
79123;BME280;68526;44.600;26.032;2024-01-30T00:41:20;103081.66;;;-0.66;73.33
79123;BME280;68526;44.600;26.032;2024-01-30T00:41:36;103079.16;;;-0.67;73.14
79123;BME280;68526;44.600;26.032;2024-01-30T00:41:51;103077.31;;;-0.67;73.09
79123;BME280;68526;44.600;26.032;2024-01-30T00:42:07;103084.38;;;-0.66;73.51
79123;BME280;68526;44.600;26.032;2024-01-30T00:42:24;103077.16;;;-0.65;73.39
79123;BME280;68526;44.600;26.032;2024-01-30T00:42:40;103083.72;;;-0.68;73.30
79123;BME280;68526;44.600;26.032;2024-01-30T00:42:56;103086.59;;;-0.69;73.20
79123;BME280;68526;44.600;26.032;2024-01-30T00:43:12;103083.41;;;-0.73;73.71
79123;BME280;68526;44.600;26.032;2024-01-30T00:43:28;103070.66;;;-0.79;73.47
79123;BME280;68526;44.600;26.032;2024-01-30T00:43:44;103082.38;;;-0.72;73.43
79123;BME280;68526;44.600;26.032;2024-01-30T00:44:00;103083.06;;;-0.70;73.27
79123;BME280;68526;44.600;26.032;2024-01-30T00:44:16;103076.00;;;-0.71;73.15
79123;BME280;68526;44.600;26.032;2024-01-30T00:44:35;103063.78;;;-0.82;73.44
79123;BME280;68526;44.600;26.032;2024-01-30T00:44:51;103085.75;;;-0.70;73.48
79123;BME280;68526;44.600;26.032;2024-01-30T00:45:12;103080.53;;;-0.71;73.10
79123;BME280;68526;44.600;26.032;2024-01-30T00:45:28;103087.31;;;-0.75;73.10
79123;BME280;68526;44.600;26.032;2024-01-30T00:45:43;103082.94;;;-0.76;73.30
79123;BME280;68526;44.600;26.032;2024-01-30T00:45:59;103081.09;;;-0.76;73.75
79123;BME280;68526;44.600;26.032;2024-01-30T00:46:15;103078.22;;;-0.74;73.54
79123;BME280;68526;44.600;26.032;2024-01-30T00:46:31;103082.56;;;-0.73;73.50
79123;BME280;68526;44.600;26.032;2024-01-30T00:46:48;103084.25;;;-0.72;73.32
79123;BME280;68526;44.600;26.032;2024-01-30T00:47:04;103086.94;;;-0.72;73.30
79123;BME280;68526;44.600;26.032;2024-01-30T00:47:20;103088.59;;;-0.71;73.36
79123;BME280;68526;44.600;26.032;2024-01-30T00:47:36;103080.91;;;-0.74;73.46
79123;BME280;68526;44.600;26.032;2024-01-30T00:47:52;103080.53;;;-0.71;73.37
79123;BME280;68526;44.600;26.032;2024-01-30T00:48:08;103078.22;;;-0.74;73.49
79123;BME280;68526;44.600;26.032;2024-01-30T00:48:25;103072.81;;;-0.74;73.81
79123;BME280;68526;44.600;26.032;2024-01-30T00:48:41;103079.22;;;-0.75;73.70
79123;BME280;68526;44.600;26.032;2024-01-30T00:48:57;103080.91;;;-0.74;73.94
79123;BME280;68526;44.600;26.032;2024-01-30T00:49:13;103079.03;;;-0.74;73.87
79123;BME280;68526;44.600;26.032;2024-01-30T00:49:29;103077.00;;;-0.72;73.93
79123;BME280;68526;44.600;26.032;2024-01-30T00:49:46;103077.38;;;-0.75;73.73
79123;BME280;68526;44.600;26.032;2024-01-30T00:50:02;103078.22;;;-0.74;73.67
79123;BME280;68526;44.600;26.032;2024-01-30T00:50:18;103075.53;;;-0.74;73.62
79123;BME280;68526;44.600;26.032;2024-01-30T00:50:33;103066.78;;;-0.76;73.81
79123;BME280;68526;44.600;26.032;2024-01-30T00:50:49;103079.03;;;-0.74;73.86
79123;BME280;68526;44.600;26.032;2024-01-30T00:51:05;103075.22;;;-0.79;73.71
79123;BME280;68526;44.600;26.032;2024-01-30T00:51:21;103072.19;;;-0.76;73.84
79123;BME280;68526;44.600;26.032;2024-01-30T00:51:38;103072.19;;;-0.76;74.13
79123;BME280;68526;44.600;26.032;2024-01-30T00:51:54;103075.84;;;-0.77;73.90
79123;BME280;68526;44.600;26.032;2024-01-30T00:52:10;103073.84;;;-0.75;74.00
79123;BME280;68526;44.600;26.032;2024-01-30T00:52:27;103074.50;;;-0.73;73.64
79123;BME280;68526;44.600;26.032;2024-01-30T00:52:42;103072.19;;;-0.76;73.58
79123;BME280;68526;44.600;26.032;2024-01-30T00:53:00;103076.16;;;-0.72;73.79
79123;BME280;68526;44.600;26.032;2024-01-30T00:53:16;103070.13;;;-0.74;73.61
79123;BME280;68526;44.600;26.032;2024-01-30T00:53:33;103073.47;;;-0.72;73.67
79123;BME280;68526;44.600;26.032;2024-01-30T00:53:49;103071.50;;;-0.78;73.93
79123;BME280;68526;44.600;26.032;2024-01-30T00:54:05;103079.41;;;-0.77;73.87
79123;BME280;68526;44.600;26.032;2024-01-30T00:54:21;103072.81;;;-0.74;73.57
79123;BME280;68526;44.600;26.032;2024-01-30T00:54:37;103069.13;;;-0.73;73.72
79123;BME280;68526;44.600;26.032;2024-01-30T00:54:53;103072.72;;;-0.81;73.85
79123;BME280;68526;44.600;26.032;2024-01-30T00:55:10;103069.81;;;-0.79;73.79
79123;BME280;68526;44.600;26.032;2024-01-30T00:55:26;103071.50;;;-0.78;73.73
79123;BME280;68526;44.600;26.032;2024-01-30T00:55:42;103069.63;;;-0.78;73.72
79123;BME280;68526;44.600;26.032;2024-01-30T00:56:00;103075.72;;;-0.76;73.57
79123;BME280;68526;44.600;26.032;2024-01-30T00:56:16;103066.94;;;-0.78;73.55
79123;BME280;68526;44.600;26.032;2024-01-30T00:56:33;103071.16;;;-0.75;73.82
79123;BME280;68526;44.600;26.032;2024-01-30T00:56:50;103073.16;;;-0.77;73.62
79123;BME280;68526;44.600;26.032;2024-01-30T00:57:06;103078.09;;;-0.81;73.58
79123;BME280;68526;44.600;26.032;2024-01-30T00:57:22;103071.03;;;-0.82;73.80
79123;BME280;68526;44.600;26.032;2024-01-30T00:57:38;103073.03;;;-0.84;73.81
79123;BME280;68526;44.600;26.032;2024-01-30T00:57:54;103072.03;;;-0.83;73.61
79123;BME280;68526;44.600;26.032;2024-01-30T00:58:10;103068.34;;;-0.82;73.50
79123;BME280;68526;44.600;26.032;2024-01-30T00:58:26;103073.34;;;-0.79;73.46
79123;BME280;68526;44.600;26.032;2024-01-30T00:58:43;103065.28;;;-0.79;73.49
79123;BME280;68526;44.600;26.032;2024-01-30T00:58:59;103068.81;;;-0.78;73.31
79123;BME280;68526;44.600;26.032;2024-01-30T00:59:15;103072.53;;;-0.79;73.56
79123;BME280;68526;44.600;26.032;2024-01-30T00:59:30;103070.31;;;-0.76;73.54
79123;BME280;68526;44.600;26.032;2024-01-30T00:59:46;103068.81;;;-0.78;73.21
79123;BME280;68526;44.600;26.032;2024-01-30T01:00:03;103068.81;;;-0.78;73.75
79123;BME280;68526;44.600;26.032;2024-01-30T01:00:19;103072.53;;;-0.79;73.45
79123;BME280;68526;44.600;26.032;2024-01-30T01:00:36;103072.53;;;-0.79;73.29
79123;BME280;68526;44.600;26.032;2024-01-30T01:00:53;103069.81;;;-0.79;73.42
79123;BME280;68526;44.600;26.032;2024-01-30T01:01:09;103076.03;;;-0.79;73.83
79123;BME280;68526;44.600;26.032;2024-01-30T01:01:25;103072.34;;;-0.78;73.23
79123;BME280;68526;44.600;26.032;2024-01-30T01:01:41;103073.00;;;-0.76;73.48
79123;BME280;68526;44.600;26.032;2024-01-30T01:01:56;103070.31;;;-0.76;73.27
79123;BME280;68526;44.600;26.032;2024-01-30T01:02:12;103073.34;;;-0.79;73.53
79123;BME280;68526;44.600;26.032;2024-01-30T01:02:30;103071.69;;;-0.80;73.60
79123;BME280;68526;44.600;26.032;2024-01-30T01:02:47;103065.47;;;-0.81;73.81
79123;BME280;68526;44.600;26.032;2024-01-30T01:03:03;103069.81;;;-0.79;73.72
79123;BME280;68526;44.600;26.032;2024-01-30T01:03:19;103069.19;;;-0.82;73.63
79123;BME280;68526;44.600;26.032;2024-01-30T01:03:35;103068.69;;;-0.85;73.80
79123;BME280;68526;44.600;26.032;2024-01-30T01:03:51;103058.44;;;-0.90;73.92
79123;BME280;68526;44.600;26.032;2024-01-30T01:04:07;103063.94;;;-0.83;73.51
79123;BME280;68526;44.600;26.032;2024-01-30T01:04:23;103069.19;;;-0.82;73.54
79123;BME280;68526;44.600;26.032;2024-01-30T01:04:40;103075.41;;;-0.81;73.80
79123;BME280;68526;44.600;26.032;2024-01-30T01:04:55;103072.88;;;-0.83;73.46
79123;BME280;68526;44.600;26.032;2024-01-30T01:05:11;103074.56;;;-0.82;73.77
79123;BME280;68526;44.600;26.032;2024-01-30T01:05:27;103073.22;;;-0.86;73.52
79123;BME280;68526;44.600;26.032;2024-01-30T01:05:43;103075.09;;;-0.86;73.89
79123;BME280;68526;44.600;26.032;2024-01-30T01:05:59;103065.34;;;-0.87;73.62
79123;BME280;68526;44.600;26.032;2024-01-30T01:06:15;103072.41;;;-0.86;73.79
79123;BME280;68526;44.600;26.032;2024-01-30T01:06:32;103068.69;;;-0.85;73.64
79123;BME280;68526;44.600;26.032;2024-01-30T01:06:49;103065.81;;;-0.84;73.78
79123;BME280;68526;44.600;26.032;2024-01-30T01:07:05;103066.63;;;-0.83;73.85
79123;BME280;68526;44.600;26.032;2024-01-30T01:07:20;103058.09;;;-0.87;73.75
79123;BME280;68526;44.600;26.032;2024-01-30T01:07:36;103071.38;;;-0.85;73.76
79123;BME280;68526;44.600;26.032;2024-01-30T01:07:52;103069.22;;;-0.90;74.14
79123;BME280;68526;44.600;26.032;2024-01-30T01:08:09;103064.19;;;-0.93;74.30
79123;BME280;68526;44.600;26.032;2024-01-30T01:08:25;103062.16;;;-0.91;73.98
79123;BME280;68526;44.600;26.032;2024-01-30T01:08:41;103068.03;;;-0.87;74.04
79123;BME280;68526;44.600;26.032;2024-01-30T01:08:57;103065.34;;;-0.87;74.02
79123;BME280;68526;44.600;26.032;2024-01-30T01:09:13;103068.69;;;-0.85;73.83
79123;BME280;68526;44.600;26.032;2024-01-30T01:09:29;103064.50;;;-0.88;73.81
79123;BME280;68526;44.600;26.032;2024-01-30T01:09:45;103064.31;;;-0.86;74.22
79123;BME280;68526;44.600;26.032;2024-01-30T01:10:02;103067.84;;;-0.86;74.05
79123;BME280;68526;44.600;26.032;2024-01-30T01:10:19;103062.84;;;-0.89;73.93
79123;BME280;68526;44.600;26.032;2024-01-30T01:10:35;103062.66;;;-0.87;73.91
79123;BME280;68526;44.600;26.032;2024-01-30T01:10:51;103066.00;;;-0.85;73.99
79123;BME280;68526;44.600;26.032;2024-01-30T01:11:08;103067.00;;;-0.86;73.79
79123;BME280;68526;44.600;26.032;2024-01-30T01:11:25;103067.66;;;-0.84;74.15
79123;BME280;68526;44.600;26.032;2024-01-30T01:11:40;103064.97;;;-0.84;73.75
79123;BME280;68526;44.600;26.032;2024-01-30T01:11:57;103064.13;;;-0.85;73.78
79123;BME280;68526;44.600;26.032;2024-01-30T01:12:13;103066.63;;;-0.83;73.60
79123;BME280;68526;44.600;26.032;2024-01-30T01:12:29;103067.66;;;-0.84;74.16
79123;BME280;68526;44.600;26.032;2024-01-30T01:12:45;103068.50;;;-0.84;73.81
79123;BME280;68526;44.600;26.032;2024-01-30T01:13:01;103062.28;;;-0.84;73.57
79123;BME280;68526;44.600;26.032;2024-01-30T01:13:17;103069.06;;;-0.88;73.66
79123;BME280;68526;44.600;26.032;2024-01-30T01:13:33;103064.19;;;-0.93;73.59
79123;BME280;68526;44.600;26.032;2024-01-30T01:13:50;103068.38;;;-0.90;74.12
79123;BME280;68526;44.600;26.032;2024-01-30T01:14:06;103068.38;;;-0.90;73.98
79123;BME280;68526;44.600;26.032;2024-01-30T01:14:22;103057.28;;;-0.87;73.77
79123;BME280;68526;44.600;26.032;2024-01-30T01:14:38;103058.28;;;-0.88;73.87
79123;BME280;68526;44.600;26.032;2024-01-30T01:14:54;103064.50;;;-0.88;73.60
79123;BME280;68526;44.600;26.032;2024-01-30T01:15:10;103066.19;;;-0.87;73.53
79123;BME280;68526;44.600;26.032;2024-01-30T01:15:26;103059.78;;;-0.86;73.80
79123;BME280;68526;44.600;26.032;2024-01-30T01:15:42;103062.28;;;-0.84;73.80
79123;BME280;68526;44.600;26.032;2024-01-30T01:15:59;103057.28;;;-0.87;73.72
79123;BME280;68526;44.600;26.032;2024-01-30T01:16:15;103069.88;;;-0.88;73.80
79123;BME280;68526;44.600;26.032;2024-01-30T01:16:31;103067.34;;;-0.89;73.69
79123;BME280;68526;44.600;26.032;2024-01-30T01:16:47;103061.69;;;-0.94;73.79
79123;BME280;68526;44.600;26.032;2024-01-30T01:17:04;103070.94;;;-0.97;74.19
79123;BME280;68526;44.600;26.032;2024-01-30T01:17:20;103062.88;;;-0.97;74.22
79123;BME280;68526;44.600;26.032;2024-01-30T01:17:36;103060.66;;;-0.93;74.08
79123;BME280;68526;44.600;26.032;2024-01-30T01:17:52;103064.19;;;-0.93;74.35
79123;BME280;68526;44.600;26.032;2024-01-30T01:18:09;103063.53;;;-0.95;74.08
79123;BME280;68526;44.600;26.032;2024-01-30T01:18:25;103060.84;;;-0.95;74.29
79123;BME280;68526;44.600;26.032;2024-01-30T01:18:40;103065.88;;;-0.92;74.35
79123;BME280;68526;44.600;26.032;2024-01-30T01:18:56;103058.63;;;-0.91;73.86
79123;BME280;68526;44.600;26.032;2024-01-30T01:19:12;103065.69;;;-0.90;74.13
79123;BME280;68526;44.600;26.032;2024-01-30T01:19:28;103065.03;;;-0.92;73.95
79123;BME280;68526;44.600;26.032;2024-01-30T01:19:44;103063.00;;;-0.90;73.90
79123;BME280;68526;44.600;26.032;2024-01-30T01:20:00;103058.63;;;-0.91;74.03
79123;BME280;68526;44.600;26.032;2024-01-30T01:20:17;103058.16;;;-0.95;73.90
79123;BME280;68526;44.600;26.032;2024-01-30T01:20:33;103058.81;;;-0.93;74.07
79123;BME280;68526;44.600;26.032;2024-01-30T01:20:49;103060.50;;;-0.92;73.76
79123;BME280;68526;44.600;26.032;2024-01-30T01:21:05;103056.97;;;-0.92;74.26
79123;BME280;68526;44.600;26.032;2024-01-30T01:21:21;103063.19;;;-0.92;73.80
79123;BME280;68526;44.600;26.032;2024-01-30T01:21:37;103063.19;;;-0.92;73.91
79123;BME280;68526;44.600;26.032;2024-01-30T01:21:53;103057.97;;;-0.93;74.20
79123;BME280;68526;44.600;26.032;2024-01-30T01:22:09;103061.69;;;-0.94;74.21
79123;BME280;68526;44.600;26.032;2024-01-30T01:22:26;103057.97;;;-0.93;74.34
79123;BME280;68526;44.600;26.032;2024-01-30T01:22:42;103061.69;;;-0.94;73.98
79123;BME280;68526;44.600;26.032;2024-01-30T01:22:57;103067.91;;;-0.94;74.24
79123;BME280;68526;44.600;26.032;2024-01-30T01:23:13;103052.28;;;-0.98;74.00
79123;BME280;68526;44.600;26.032;2024-01-30T01:23:29;103057.66;;;-0.98;74.12
79123;BME280;68526;44.600;26.032;2024-01-30T01:23:45;103061.84;;;-0.96;73.79